Betancuria — EAMH — position and weather

sailwx.info

Track history (hours):
 
Tides and Currents Weather Stations Pressure Air Temp Water Temp Dewpoint Dewpoint Depression Visibility Wind Speed Wind Dir Waves Ship Positions

Betancuria

Last reported at 2015-May-05 16:32 UTC. Time now 2015-May-06 15:31 UTC.
Position N 39°15' W 009°51'.

Length 141 m; draft 4.7 m.

Type: Ship. MMSI: 224471000.

Date/timePositionNaut miles runAvg speedWind from/ knotsBaromVisibWave heightAir tempDewpointWater temp
2015-May-05 16:32N 39°15' W 009°51'9 8.6
2015-May-05 15:32N 39°06' W 009°50'8 8.5
2015-May-05 14:33N 38°58' W 009°50'9 8.6
2015-May-05 13:33N 38°49' W 009°50'9 8.6
2015-May-05 12:33N 38°41' W 009°50'8 7.9
2015-May-05 11:33N 38°33' W 009°48'8 7.9
2015-May-05 10:33N 38°26' W 009°45'8 7.9
2015-May-05 09:34N 38°18' W 009°42'8 8.0
2015-May-05 08:33N 38°10' W 009°40'18 8.5
2015-May-05 06:27N 37°53' W 009°35'8 8.8
2015-May-05 05:33N 37°45' W 009°33'10 9.2
2015-May-05 04:27N 37°35' W 009°30'150 7.8
2015-May-04 09:21N 36°13' W 006°54'910.8
2015-May-04 08:33N 36°11' W 006°43'64 9.0
2015-May-04 01:31N 36°01' W 005°26'8 8.0
2015-May-04 00:33N 36°09' W 005°25'1 0.5
2015-May-03 23:29N 36°08' W 005°26'0 0.0
2015-May-03 22:26N 36°08' W 005°26'0 0.0
2015-May-03 20:29N 36°08' W 005°26'0 0.0
2015-May-03 19:05N 36°08' W 005°26'0 0.0
2015-May-03 17:05N 36°08' W 005°26'1 1.5
2015-May-03 16:33N 36°09' W 005°25'7 7.1
2015-May-03 15:34N 36°06' W 005°18'12110.6
2015-May-03 04:08N 36°32' W 002°51'610.8
2015-May-03 03:33N 36°32' W 002°44'1110.9
2015-May-03 02:33N 36°29' W 002°31'1111.2
2015-May-03 01:33N 36°26' W 002°17'1212.0
2015-May-03 00:33N 36°27' W 002°02'1211.7
2015-May-02 23:33N 36°29' W 001°48'1511.5
2015-May-02 22:16N 36°31' W 001°29'2411.9
2015-May-02 20:14N 36°35' W 000°60'812.0
2015-May-02 19:32N 36°36' W 000°49'1211.7
2015-May-02 18:32N 36°37' W 000°35'1211.7
2015-May-02 17:29N 36°39' W 000°20'1111.2
2015-May-02 16:33N 36°41' W 000°07'1111.3
2015-May-02 15:33N 36°42' E 000°07'1111.1
2015-May-02 14:33N 36°44' E 000°21'1211.0
2015-May-02 13:26N 36°46' E 000°36'1010.9
2015-May-02 12:30N 36°48' E 000°49'1110.9
2015-May-02 11:27N 36°50' E 001°03'910.2
2015-May-02 10:33N 36°51' E 001°14'5410.6
2015-May-02 05:31N 36°59' E 002°21'1010.4
2015-May-02 04:33N 37°00' E 002°33'31311.2
2015-May-01 00:30N 37°39' E 009°04'2510.7
2015-Apr-30 22:13N 37°39' E 009°35'3110.6
2015-Apr-30 19:20N 37°38' E 010°14'3210.9
2015-Apr-30 16:27N 37°32' E 010°53'1011.2
2015-Apr-30 15:32N 37°29' E 011°05'8010.9
2015-Apr-30 08:13N 37°05' E 012°41'710.7
2015-Apr-30 07:32N 37°03' E 012°49'1010.7
2015-Apr-30 06:34N 36°60' E 013°02'1110.7
2015-Apr-30 05:33N 36°57' E 013°15'1010.3
2015-Apr-30 04:34N 36°54' E 013°27'1010.2
2015-Apr-30 03:34N 36°51' E 013°39'1110.5
2015-Apr-30 02:32N 36°48' E 013°52'1110.8
2015-Apr-30 01:33N 36°45' E 014°05'1110.6
2015-Apr-30 00:33N 36°42' E 014°17'1010.1
2015-Apr-29 23:34N 36°39' E 014°29'1010.0
2015-Apr-29 22:33N 36°36' E 014°41'1010.2
2015-Apr-29 21:33N 36°33' E 014°53'10 9.9
2015-Apr-29 20:32N 36°30' E 015°05'9 9.1
2015-Apr-29 19:32N 36°35' E 015°15'1110.9
2015-Apr-29 18:32N 36°43' E 015°24'  
Track history (hours):
 
Tides and Currents Weather Stations Pressure Air Temp Water Temp Dewpoint Dewpoint Depression Visibility Wind Speed Wind Dir Waves Ship Positions

Betancuria

Last reported at 2015-May-05 16:32 UTC. Time now 2015-May-06 15:31 UTC.
Position N 39°15' W 009°51'.

Length 141 m; draft 4.7 m.

Type: Ship. MMSI: 224471000.

Date/timePositionNaut miles runAvg speedWind from/ knotsBaromVisibWave heightAir tempDewpointWater temp
2015-May-05 16:32N 39°15' W 009°51'9 8.6
2015-May-05 15:32N 39°06' W 009°50'8 8.5
2015-May-05 14:33N 38°58' W 009°50'9 8.6
2015-May-05 13:33N 38°49' W 009°50'9 8.6
2015-May-05 12:33N 38°41' W 009°50'8 7.9
2015-May-05 11:33N 38°33' W 009°48'8 7.9
2015-May-05 10:33N 38°26' W 009°45'8 7.9
2015-May-05 09:34N 38°18' W 009°42'8 8.0
2015-May-05 08:33N 38°10' W 009°40'18 8.5
2015-May-05 06:27N 37°53' W 009°35'8 8.8
2015-May-05 05:33N 37°45' W 009°33'10 9.2
2015-May-05 04:27N 37°35' W 009°30'150 7.8
2015-May-04 09:21N 36°13' W 006°54'910.8
2015-May-04 08:33N 36°11' W 006°43'64 9.0
2015-May-04 01:31N 36°01' W 005°26'8 8.0
2015-May-04 00:33N 36°09' W 005°25'1 0.5
2015-May-03 23:29N 36°08' W 005°26'0 0.0
2015-May-03 22:26N 36°08' W 005°26'0 0.0
2015-May-03 20:29N 36°08' W 005°26'0 0.0
2015-May-03 19:05N 36°08' W 005°26'0 0.0
2015-May-03 17:05N 36°08' W 005°26'1 1.5
2015-May-03 16:33N 36°09' W 005°25'7 7.1
2015-May-03 15:34N 36°06' W 005°18'12110.6
2015-May-03 04:08N 36°32' W 002°51'610.8
2015-May-03 03:33N 36°32' W 002°44'1110.9
2015-May-03 02:33N 36°29' W 002°31'1111.2
2015-May-03 01:33N 36°26' W 002°17'1212.0
2015-May-03 00:33N 36°27' W 002°02'1211.7
2015-May-02 23:33N 36°29' W 001°48'1511.5
2015-May-02 22:16N 36°31' W 001°29'2411.9
2015-May-02 20:14N 36°35' W 000°60'812.0
2015-May-02 19:32N 36°36' W 000°49'1211.7
2015-May-02 18:32N 36°37' W 000°35'1211.7
2015-May-02 17:29N 36°39' W 000°20'1111.2
2015-May-02 16:33N 36°41' W 000°07'1111.3
2015-May-02 15:33N 36°42' E 000°07'1111.1
2015-May-02 14:33N 36°44' E 000°21'1211.0
2015-May-02 13:26N 36°46' E 000°36'1010.9
2015-May-02 12:30N 36°48' E 000°49'1110.9
2015-May-02 11:27N 36°50' E 001°03'910.2
2015-May-02 10:33N 36°51' E 001°14'5410.6
2015-May-02 05:31N 36°59' E 002°21'1010.4
2015-May-02 04:33N 37°00' E 002°33'31311.2
2015-May-01 00:30N 37°39' E 009°04'2510.7
2015-Apr-30 22:13N 37°39' E 009°35'3110.6
2015-Apr-30 19:20N 37°38' E 010°14'3210.9
2015-Apr-30 16:27N 37°32' E 010°53'1011.2
2015-Apr-30 15:32N 37°29' E 011°05'8010.9
2015-Apr-30 08:13N 37°05' E 012°41'710.7
2015-Apr-30 07:32N 37°03' E 012°49'1010.7
2015-Apr-30 06:34N 36°60' E 013°02'1110.7
2015-Apr-30 05:33N 36°57' E 013°15'1010.3
2015-Apr-30 04:34N 36°54' E 013°27'1010.2
2015-Apr-30 03:34N 36°51' E 013°39'1110.5
2015-Apr-30 02:32N 36°48' E 013°52'1110.8
2015-Apr-30 01:33N 36°45' E 014°05'1110.6
2015-Apr-30 00:33N 36°42' E 014°17'1010.1
2015-Apr-29 23:34N 36°39' E 014°29'1010.0
2015-Apr-29 22:33N 36°36' E 014°41'1010.2
2015-Apr-29 21:33N 36°33' E 014°53'10 9.9
2015-Apr-29 20:32N 36°30' E 015°05'9 9.1
2015-Apr-29 19:32N 36°35' E 015°15'1110.9
2015-Apr-29 18:32N 36°43' E 015°24'  

Dump ship's entire track history